Terminal Aerodrome Forecast
Issued by NWS

Home | Current Version | Previous Version | Text Only | Print | Product List | Glossary On
Versions: 1 2 3 4 5 6 7 8 9 10 11 12 13 14 15 16 17 18 19 20 21 22 23 24 25
000
FTUS46 KSGX 221724
TAFSAN
TAF
KSAN 221724Z 2218/2324 VRB03KT P6SM SCT250
     FM221900 27011KT P6SM FEW250
     FM230230 VRB04KT P6SM FEW010
     FM230600 VRB04KT 6SM BR BKN007
     FM230900 VRB04KT 4SM BR BKN003
     FM231400 VRB04KT 4SM BR BKN007
     FM231530 VRB04KT P6SM SCT008
     FM231900 27011KT P6SM FEW250=

USA.gov is the U.S. government's official web portal to all federal, state and local government web resources and services.